Time;durP1;ratioP1;P1;durP2;ratioP2;P2;SDS_P1;SDS_P2;PMS_P1;PMS_P2;Temp;Humidity;BMP_temperature;BMP_pressure;BME280_temperature;BME280_humidity;BME280_pressure;Samples;Min_cycle;Max_cycle;Signal;HPM_P1;HPM_P2
2024/03/04 00:00:22;;;;;;;33.22;16.40;;;;;;;1.23;100.00;97276.09;6104472;19;20368;-71
2024/03/04 00:02:23;;;;;;;33.97;17.48;;;;;;;1.28;100.00;97278.59;6106357;19;19998;-71
2024/03/04 00:04:23;;;;;;;37.10;19.08;;;;;;;1.31;100.00;97278.66;6106073;19;20546;-71
2024/03/04 00:06:23;;;;;;;33.38;17.42;;;;;;;1.30;100.00;97279.03;6106149;19;20321;-71
2024/03/04 00:08:24;;;;;;;31.10;17.00;;;;;;;1.28;100.00;97281.31;6106472;19;20428;-71
2024/03/04 00:10:24;;;;;;;31.33;16.80;;;;;;;1.27;100.00;97282.44;6105104;19;20010;-71
2024/03/04 00:12:25;;;;;;;29.38;16.05;;;;;;;1.24;100.00;97283.13;6108624;19;20025;-71
2024/03/04 00:14:25;;;;;;;31.45;15.60;;;;;;;1.20;100.00;97283.03;6105409;19;20471;-71
2024/03/04 00:16:25;;;;;;;30.02;14.77;;;;;;;1.16;100.00;97276.69;6111049;19;20044;-71
2024/03/04 00:18:26;;;;;;;26.75;14.45;;;;;;;1.15;100.00;97285.19;6111049;19;20594;-71
2024/03/04 00:20:26;;;;;;;27.15;14.30;;;;;;;1.15;100.00;97277.81;6110684;19;20410;-71
2024/03/04 00:22:26;;;;;;;30.75;15.65;;;;;;;1.15;100.00;97275.09;6110431;19;20352;-71
2024/03/04 00:24:26;;;;;;;31.95;15.70;;;;;;;1.07;100.00;97276.81;6111138;19;20334;-71
2024/03/04 00:26:27;;;;;;;26.98;15.52;;;;;;;1.03;100.00;97275.94;6111406;19;20455;-71
2024/03/04 00:28:27;;;;;;;28.70;15.65;;;;;;;0.94;100.00;97278.00;6112245;19;20006;-71
2024/03/04 00:30:28;;;;;;;29.17;15.18;;;;;;;0.90;100.00;97282.53;6110735;19;20034;-71
2024/03/04 00:32:29;;;;;;;29.67;14.77;;;;;;;0.81;100.00;97285.38;6110141;19;20023;-71
2024/03/04 00:34:30;;;;;;;26.20;14.00;;;;;;;0.76;100.00;97282.13;6111462;19;20024;-71
2024/03/04 00:36:30;;;;;;;34.05;16.65;;;;;;;0.79;100.00;97286.88;6110693;19;20328;-71
2024/03/04 00:38:30;;;;;;;29.17;15.40;;;;;;;0.81;100.00;97288.13;6111448;19;20737;-71
2024/03/04 00:40:30;;;;;;;33.05;17.08;;;;;;;0.79;100.00;97286.88;6110221;19;20026;-71
2024/03/04 00:42:32;;;;;;;28.00;15.18;;;;;;;0.74;100.00;97292.53;6111066;19;20007;-71
2024/03/04 00:44:32;;;;;;;29.65;15.73;;;;;;;0.72;100.00;97292.09;6110795;19;20341;-71
2024/03/04 00:46:32;;;;;;;28.25;15.10;;;;;;;0.70;100.00;97297.91;6108996;19;20007;-71
2024/03/04 00:48:33;;;;;;;28.60;15.18;;;;;;;0.69;100.00;97296.31;6109999;19;20066;-71
2024/03/04 00:50:33;;;;;;;27.48;15.35;;;;;;;0.68;100.00;97296.66;6109537;19;20006;-71
2024/03/04 00:52:34;;;;;;;24.88;14.20;;;;;;;0.69;100.00;97300.97;6110620;19;20018;-71
2024/03/04 00:54:34;;;;;;;27.88;15.18;;;;;;;0.70;100.00;97299.81;6111176;19;20006;-71
2024/03/04 00:56:35;;;;;;;30.35;14.93;;;;;;;0.66;100.00;97302.41;6110141;19;20010;-71
2024/03/04 00:58:36;;;;;;;25.40;13.10;;;;;;;0.55;100.00;97293.94;6110629;19;20315;-71
2024/03/04 01:00:37;;;;;;;26.08;13.20;;;;;;;0.49;100.00;97299.94;6109201;19;20078;-71
2024/03/04 01:02:37;;;;;;;23.15;12.52;;;;;;;0.43;100.00;97306.75;6109877;19;20010;-71
2024/03/04 01:04:39;;;;;;;24.30;13.52;;;;;;;0.34;100.00;97298.72;6110387;19;20349;-71
2024/03/04 01:06:39;;;;;;;24.50;13.23;;;;;;;0.32;100.00;97302.88;6110006;19;20003;-71
2024/03/04 01:08:39;;;;;;;24.75;12.98;;;;;;;0.28;100.00;97310.94;6109283;19;20014;-71
2024/03/04 01:10:40;;;;;;;25.33;13.65;;;;;;;0.26;100.00;97314.00;6110050;19;20077;-71
2024/03/04 01:12:41;;;;;;;27.58;13.63;;;;;;;0.22;100.00;97315.81;6110056;19;20009;-71
2024/03/04 01:14:41;;;;;;;22.85;11.75;;;;;;;0.24;100.00;97324.41;6106016;19;20481;-71
2024/03/04 01:16:42;;;;;;;22.50;12.63;;;;;;;0.23;100.00;97322.03;6102374;19;19998;-71
2024/03/04 01:18:42;;;;;;;25.60;13.55;;;;;;;0.22;100.00;97315.81;6101779;19;20006;-71
2024/03/04 01:20:44;;;;;;;22.77;13.05;;;;;;;0.25;100.00;97319.78;6101654;19;20105;-71
2024/03/04 01:22:44;;;;;;;25.02;14.18;;;;;;;0.24;100.00;97320.91;6102685;19;20019;-71
2024/03/04 01:24:49;;;;;;;23.35;11.80;;;;;;;0.22;100.00;97323.16;6103346;19;20010;-72
2024/03/04 01:26:51;;;;;;;20.52;11.70;;;;;;;0.24;100.00;97318.19;6103999;19;20012;-70
2024/03/04 01:28:52;;;;;;;28.58;13.75;;;;;;;0.23;100.00;97319.31;6103821;19;20003;-71
2024/03/04 01:30:55;;;;;;;24.13;13.38;;;;;;;0.23;100.00;97322.84;6102214;19;20500;-71
2024/03/04 01:32:59;;;;;;;25.58;14.10;;;;;;;0.19;100.00;97326.56;6103724;19;20381;-71
2024/03/04 01:35:00;;;;;;;24.73;13.18;;;;;;;0.14;100.00;97329.50;6104256;19;20018;-71
2024/03/04 01:37:01;;;;;;;25.27;13.27;;;;;;;0.19;100.00;97338.25;6103845;19;20462;-71
2024/03/04 01:39:02;;;;;;;22.92;13.57;;;;;;;0.23;100.00;97341.88;6103897;19;20006;-71
2024/03/04 01:41:03;;;;;;;32.00;15.00;;;;;;;0.19;100.00;97332.03;6102577;19;20007;-71
2024/03/04 01:43:03;;;;;;;27.35;14.80;;;;;;;0.15;100.00;97337.31;6103735;19;20023;-71
2024/03/04 01:45:15;;;;;;;28.95;14.13;;;;;;;0.06;100.00;97330.41;6102868;19;20006;-71
2024/03/04 01:47:20;;;;;;;32.40;14.50;;;;;;;0.00;100.00;97329.84;6102708;19;20002;-71
2024/03/04 01:49:20;;;;;;;28.02;14.07;;;;;;;-0.01;100.00;97330.94;6102975;19;20035;-71
2024/03/04 01:51:21;;;;;;;28.63;14.68;;;;;;;-0.10;100.00;97332.97;6102290;19;20345;-71
2024/03/04 01:53:23;;;;;;;29.88;14.90;;;;;;;-0.14;100.00;97338.28;6102776;19;20712;-71
2024/03/04 01:55:26;;;;;;;28.75;14.77;;;;;;;-0.21;100.00;97329.09;6102283;19;20890;-71
2024/03/04 01:57:27;;;;;;;27.50;13.68;;;;;;;-0.25;100.00;97345.25;6102208;19;20026;-71
2024/03/04 01:59:28;;;;;;;28.70;14.93;;;;;;;-0.28;100.00;97344.03;6103517;19;20034;-71
2024/03/04 02:01:28;;;;;;;29.60;15.27;;;;;;;-0.29;100.00;97349.78;6101299;19;20396;-70
2024/03/04 02:03:31;;;;;;;25.15;13.30;;;;;;;-0.32;100.00;97350.47;6102764;19;20102;-71
2024/03/04 02:05:33;;;;;;;30.00;14.45;;;;;;;-0.36;100.00;97344.09;6102790;19;20818;-71
2024/03/04 02:07:33;;;;;;;24.27;13.20;;;;;;;-0.42;100.00;97346.22;6102827;19;20260;-71
2024/03/04 02:09:35;;;;;;;29.80;13.82;;;;;;;-0.44;100.00;97348.50;6102833;19;20345;-71
2024/03/04 02:11:38;;;;;;;29.75;13.70;;;;;;;-0.45;100.00;97344.19;6100635;19;20006;-71
2024/03/04 02:13:38;;;;;;;25.92;12.98;;;;;;;-0.42;100.00;97342.72;6101698;19;20506;-71
2024/03/04 02:15:39;;;;;;;24.05;13.43;;;;;;;-0.41;100.00;97341.59;6108301;19;20007;-71
2024/03/04 02:17:39;;;;;;;28.35;14.00;;;;;;;-0.45;100.00;97346.09;6108730;19;20003;-71
2024/03/04 02:19:40;;;;;;;28.55;14.88;;;;;;;-0.53;100.00;97341.53;6108661;19;20006;-71
2024/03/04 02:21:49;;;;;;;27.83;13.70;;;;;;;-0.49;100.00;97345.19;6107152;19;20347;-70
2024/03/04 02:23:49;;;;;;;22.95;12.30;;;;;;;-0.45;100.00;97348.81;6109166;19;20003;-71
2024/03/04 02:25:54;;;;;;;24.15;12.60;;;;;;;-0.44;100.00;97353.13;6109267;19;20403;-71
2024/03/04 02:27:55;;;;;;;25.48;13.57;;;;;;;-0.51;100.00;97345.50;6109557;19;20415;-71
2024/03/04 02:29:55;;;;;;;26.67;13.70;;;;;;;-0.50;100.00;97355.25;6107711;19;20002;-71
2024/03/04 02:31:56;;;;;;;27.13;13.82;;;;;;;-0.53;100.00;97355.13;6107230;19;20470;-71
2024/03/04 02:33:57;;;;;;;27.15;13.82;;;;;;;-0.58;100.00;97347.97;6106879;19;20002;-71
2024/03/04 02:35:58;;;;;;;23.15;11.98;;;;;;;-0.61;100.00;97351.34;6108563;19;19999;-71
2024/03/04 02:38:02;;;;;;;24.05;12.68;;;;;;;-0.66;100.00;97355.09;6108407;19;20102;-71
2024/03/04 02:40:06;;;;;;;24.52;12.15;;;;;;;-0.69;100.00;97353.00;6106958;19;19999;-71
2024/03/04 02:42:07;;;;;;;25.70;12.75;;;;;;;-0.69;100.00;97361.16;6107159;19;20039;-71
2024/03/04 02:44:08;;;;;;;29.08;13.55;;;;;;;-0.67;100.00;97347.25;6107339;19;20003;-71
2024/03/04 02:46:09;;;;;;;28.50;15.00;;;;;;;-0.65;100.00;97353.94;6108762;19;19999;-71
2024/03/04 02:48:09;;;;;;;26.85;13.73;;;;;;;-0.61;100.00;97348.63;6107636;19;20249;-71
2024/03/04 02:50:10;;;;;;;24.08;12.48;;;;;;;-0.62;100.00;97353.28;6108327;19;20498;-71
2024/03/04 02:52:10;;;;;;;28.38;14.02;;;;;;;-0.66;100.00;97359.72;6106193;19;20316;-70
2024/03/04 02:54:10;;;;;;;27.80;14.00;;;;;;;-0.73;100.00;97362.16;6108197;19;20030;-71
2024/03/04 02:56:11;;;;;;;30.20;14.75;;;;;;;-0.79;100.00;97368.91;6107485;19;20030;-71
2024/03/04 02:58:11;;;;;;;28.10;14.90;;;;;;;-0.82;100.00;97364.16;6107688;19;20475;-71
2024/03/04 03:00:12;;;;;;;28.45;13.13;;;;;;;-0.81;100.00;97371.19;6107221;19;20006;-71
2024/03/04 03:02:12;;;;;;;26.80;13.63;;;;;;;-0.77;100.00;97375.59;6105820;19;20010;-71
2024/03/04 03:04:13;;;;;;;27.73;13.75;;;;;;;-0.81;100.00;97390.19;6107801;19;20390;-71
2024/03/04 03:06:13;;;;;;;27.38;13.23;;;;;;;-0.84;100.00;97383.47;6107436;19;20006;-71
2024/03/04 03:08:13;;;;;;;26.23;14.23;;;;;;;-0.80;100.00;97389.06;6107207;19;20578;-71
2024/03/04 03:10:14;;;;;;;27.80;13.90;;;;;;;-0.79;100.00;97390.66;6106682;19;21010;-71
2024/03/04 03:12:14;;;;;;;26.38;12.95;;;;;;;-0.73;100.00;97392.84;6106153;19;19999;-71
2024/03/04 03:14:15;;;;;;;27.65;13.07;;;;;;;-0.76;100.00;97392.69;6107137;19;19998;-71
2024/03/04 03:16:22;;;;;;;25.88;13.38;;;;;;;-0.77;100.00;97394.63;6108004;19;20303;-71
2024/03/04 03:18:22;;;;;;;25.05;12.63;;;;;;;-0.87;100.00;97397.72;6107460;19;20006;-71
2024/03/04 03:20:22;;;;;;;25.92;12.32;;;;;;;-0.92;100.00;97392.47;6106416;19;20066;-71
2024/03/04 03:22:23;;;;;;;25.17;11.88;;;;;;;-0.83;100.00;97395.94;6106879;19;19999;-71
2024/03/04 03:24:23;;;;;;;24.25;11.88;;;;;;;-0.82;100.00;97394.81;6107426;19;20360;-71
2024/03/04 03:26:25;;;;;;;24.92;12.23;;;;;;;-0.76;100.00;97398.13;6108221;19;20416;-71
2024/03/04 03:28:26;;;;;;;24.40;12.65;;;;;;;-0.73;100.00;97397.47;6107524;19;20011;-71
2024/03/04 03:30:27;;;;;;;22.23;12.50;;;;;;;-0.74;100.00;97390.47;6106431;19;20018;-71
2024/03/04 03:32:28;;;;;;;24.23;12.77;;;;;;;-0.78;100.00;97389.53;6107213;19;20010;-71
2024/03/04 03:34:29;;;;;;;22.17;11.40;;;;;;;-0.83;100.00;97395.94;6107650;19;20794;-71
2024/03/04 03:36:29;;;;;;;18.90;10.68;;;;;;;-0.90;100.00;97387.53;6107254;19;20010;-71
2024/03/04 03:38:30;;;;;;;23.08;11.43;;;;;;;-0.88;100.00;97396.94;6106363;19;20022;-71
2024/03/04 03:40:31;;;;;;;24.48;12.23;;;;;;;-0.89;100.00;97399.97;6106613;19;20019;-71
2024/03/04 03:42:32;;;;;;;26.05;12.40;;;;;;;-0.89;100.00;97403.50;6105904;19;20010;-71
2024/03/04 03:44:32;;;;;;;27.27;13.23;;;;;;;-0.89;100.00;97403.50;6107204;19;20442;-71
2024/03/04 03:46:34;;;;;;;23.55;13.13;;;;;;;-0.89;100.00;97411.63;6108710;19;20007;-71
2024/03/04 03:48:34;;;;;;;29.23;13.27;;;;;;;-0.87;100.00;97412.09;6113235;19;20018;-71
2024/03/04 03:50:34;;;;;;;24.38;13.25;;;;;;;-0.89;100.00;97408.91;6111438;19;20078;-71
2024/03/04 03:52:35;;;;;;;26.85;13.07;;;;;;;-0.95;100.00;97406.72;6112370;19;20136;-71
2024/03/04 03:54:35;;;;;;;31.35;14.27;;;;;;;-0.99;100.00;97413.94;6112492;19;20554;-71
2024/03/04 03:56:39;;;;;;;24.08;13.13;;;;;;;-1.02;100.00;97411.88;6112081;19;20011;-71
2024/03/04 03:58:40;;;;;;;26.00;13.20;;;;;;;-1.05;100.00;97418.75;6112584;19;20011;-71
2024/03/04 04:00:41;;;;;;;29.00;14.05;;;;;;;-1.09;100.00;97420.53;6111405;19;20125;-71
2024/03/04 04:02:41;;;;;;;26.63;13.55;;;;;;;-1.12;100.00;97415.75;6112664;19;20894;-71
2024/03/04 04:04:41;;;;;;;29.70;14.38;;;;;;;-1.10;100.00;97420.84;6112252;19;20019;-71
2024/03/04 04:06:42;;;;;;;25.65;13.38;;;;;;;-1.09;100.00;97419.72;6111416;19;20006;-71
2024/03/04 04:08:42;;;;;;;24.50;13.15;;;;;;;-1.06;100.00;97427.25;6112266;19;20007;-71
2024/03/04 04:10:42;;;;;;;26.65;13.63;;;;;;;-1.05;100.00;97431.53;6110518;19;20034;-71
2024/03/04 04:12:43;;;;;;;38.30;15.43;;;;;;;-1.07;100.00;97429.16;6110901;19;20010;-71
2024/03/04 04:14:43;;;;;;;27.33;13.73;;;;;;;-1.05;100.00;97432.34;6112044;19;20095;-71
2024/03/04 04:16:43;;;;;;;29.27;13.70;;;;;;;-1.08;100.00;97429.47;6113001;19;20015;-71
2024/03/04 04:18:44;;;;;;;27.77;12.20;;;;;;;-1.12;100.00;97423.91;6110987;19;20485;-71
2024/03/04 04:20:47;;;;;;;27.08;14.55;;;;;;;-1.16;100.00;97426.50;6111166;19;20010;-71
2024/03/04 04:22:48;;;;;;;28.65;13.73;;;;;;;-1.17;100.00;97426.78;6111533;19;20007;-71
2024/03/04 04:24:48;;;;;;;23.40;12.63;;;;;;;-1.21;100.00;97429.38;6112651;19;20034;-71
2024/03/04 04:26:49;;;;;;;25.65;12.88;;;;;;;-1.23;100.00;97426.19;6111229;19;20010;-71
2024/03/04 04:28:50;;;;;;;26.55;13.98;;;;;;;-1.21;100.00;97434.00;6111960;19;20015;-71
2024/03/04 04:30:51;;;;;;;24.05;12.82;;;;;;;-1.24;100.00;97427.31;6110578;19;20019;-71
2024/03/04 04:32:51;;;;;;;28.85;13.70;;;;;;;-1.20;100.00;97430.16;6112185;19;20341;-71
2024/03/04 04:34:51;;;;;;;25.40;12.50;;;;;;;-1.24;100.00;97431.94;6110574;19;20014;-71
2024/03/04 04:36:52;;;;;;;22.95;11.75;;;;;;;-1.30;100.00;97446.81;6111793;19;20230;-71
2024/03/04 04:38:53;;;;;;;21.63;11.65;;;;;;;-1.31;100.00;97443.31;6111588;19;20013;-71
2024/03/04 04:40:53;;;;;;;20.63;11.70;;;;;;;-1.33;100.00;97442.81;6107683;19;20034;-71
2024/03/04 04:42:53;;;;;;;21.70;11.18;;;;;;;-1.30;100.00;97449.53;6110288;19;20099;-71
2024/03/04 04:44:54;;;;;;;22.55;11.40;;;;;;;-1.33;100.00;97440.09;6111292;19;20014;-71
2024/03/04 04:46:54;;;;;;;21.70;11.43;;;;;;;-1.35;100.00;97447.78;6108856;19;20267;-71
2024/03/04 04:48:54;;;;;;;25.52;11.98;;;;;;;-1.38;100.00;97456.59;6110826;19;20362;-71
2024/03/04 04:50:55;;;;;;;20.58;10.82;;;;;;;-1.40;100.00;97450.69;6109017;19;20660;-71
2024/03/04 04:52:55;;;;;;;25.23;11.93;;;;;;;-1.38;100.00;97451.16;6109935;19;20011;-71
2024/03/04 04:54:55;;;;;;;22.38;10.60;;;;;;;-1.39;100.00;97460.44;6109573;19;20010;-71
2024/03/04 04:56:56;;;;;;;21.60;11.55;;;;;;;-1.38;100.00;97462.00;6110522;19;20462;-71
2024/03/04 04:58:56;;;;;;;20.63;11.02;;;;;;;-1.37;100.00;97469.03;6110251;19;20013;-71
2024/03/04 05:00:57;;;;;;;17.50;9.57;;;;;;;-1.43;100.00;97468.41;6110828;19;20014;-71
2024/03/04 05:02:57;;;;;;;17.70;10.07;;;;;;;-1.47;100.00;97469.38;6110815;19;20011;-71
2024/03/04 05:04:58;;;;;;;19.83;11.65;;;;;;;-1.51;100.00;97480.06;6109730;19;20011;-71
2024/03/04 05:06:58;;;;;;;19.33;10.50;;;;;;;-1.55;100.00;97483.78;6111249;19;20463;-71
2024/03/04 05:08:58;;;;;;;17.45;10.30;;;;;;;-1.54;100.00;97471.81;6110198;19;20006;-71
2024/03/04 05:10:59;;;;;;;19.75;10.45;;;;;;;-1.60;100.00;97475.78;6110456;19;20011;-71
2024/03/04 05:12:59;;;;;;;21.35;11.25;;;;;;;-1.55;100.00;97471.00;6110252;19;20015;-71
2024/03/04 05:15:00;;;;;;;21.70;10.70;;;;;;;-1.58;100.00;97474.34;6101975;19;20324;-71
2024/03/04 05:17:00;;;;;;;21.45;10.70;;;;;;;-1.65;100.00;97476.00;6109291;19;20006;-71
2024/03/04 05:19:02;;;;;;;19.17;10.57;;;;;;;-1.66;100.00;97482.50;6107136;19;20007;-71
2024/03/04 05:21:03;;;;;;;19.95;11.02;;;;;;;-1.67;100.00;97489.84;6105289;19;20042;-71
2024/03/04 05:23:04;;;;;;;20.75;10.85;;;;;;;-1.68;100.00;97493.69;6107980;19;20031;-71
2024/03/04 05:25:05;;;;;;;18.15;9.98;;;;;;;-1.73;100.00;97500.09;6110640;19;20007;-71
2024/03/04 05:27:06;;;;;;;17.20;9.80;;;;;;;-1.80;100.00;97507.13;6110586;19;19999;-71
2024/03/04 05:29:06;;;;;;;21.58;10.38;;;;;;;-1.92;100.00;97498.81;6108161;19;20078;-71
2024/03/04 05:31:06;;;;;;;19.08;9.82;;;;;;;-2.02;100.00;97503.44;6109199;19;20321;-71
2024/03/04 05:33:07;;;;;;;17.17;9.82;;;;;;;-2.05;100.00;97511.44;6110400;19;20381;-71
2024/03/04 05:35:08;;;;;;;19.83;10.60;;;;;;;-2.10;100.00;97506.16;6110521;19;20003;-71
2024/03/04 05:37:11;;;;;;;19.27;11.00;;;;;;;-2.05;100.00;97517.66;6110542;19;20486;-71
2024/03/04 05:39:13;;;;;;;20.52;11.07;;;;;;;-2.07;100.00;97528.03;6105803;19;20030;-71
2024/03/04 05:41:14;;;;;;;19.77;10.40;;;;;;;-2.03;100.00;97526.25;6104650;19;20014;-71
2024/03/04 05:43:14;;;;;;;21.27;11.00;;;;;;;-2.01;100.00;97532.16;6106726;19;20010;-71
2024/03/04 05:45:14;;;;;;;18.55;10.65;;;;;;;-2.05;100.00;97546.66;6105164;19;20089;-71
2024/03/04 05:47:15;;;;;;;17.40;10.90;;;;;;;-2.01;100.00;97543.00;6108610;19;20017;-71
2024/03/04 05:49:15;;;;;;;20.42;10.57;;;;;;;-2.00;100.00;97541.88;6105854;19;20011;-71
2024/03/04 05:51:15;;;;;;;18.80;10.50;;;;;;;-2.03;100.00;97537.09;6105930;19;20011;-71
2024/03/04 05:53:16;;;;;;;21.08;10.48;;;;;;;-2.02;100.00;97540.59;6108205;19;20593;-71
2024/03/04 05:55:16;;;;;;;16.73;10.10;;;;;;;-1.97;100.00;97532.31;6109240;19;20010;-71
2024/03/04 05:57:17;;;;;;;16.13;9.32;;;;;;;-1.96;100.00;97538.53;6108896;19;20003;-71
2024/03/04 05:59:18;;;;;;;16.13;9.43;;;;;;;-1.92;100.00;97540.28;6110149;19;20010;-71
2024/03/04 06:01:19;;;;;;;15.80;9.50;;;;;;;-1.96;100.00;97542.03;6107311;19;19999;-71
2024/03/04 06:03:19;;;;;;;18.00;10.10;;;;;;;-1.98;100.00;97547.00;6109945;19;20465;-70
2024/03/04 06:05:19;;;;;;;18.50;9.23;;;;;;;-2.05;100.00;97560.22;6109409;19;20023;-71
2024/03/04 06:07:20;;;;;;;19.50;9.48;;;;;;;-2.11;100.00;97558.78;6109254;19;20455;-71
2024/03/04 06:09:21;;;;;;;16.45;10.70;;;;;;;-2.19;100.00;97562.28;6106567;19;20036;-70
2024/03/04 06:11:22;;;;;;;18.02;9.65;;;;;;;-2.16;100.00;97575.19;6108238;19;20006;-70
2024/03/04 06:13:22;;;;;;;18.58;10.02;;;;;;;-2.08;100.00;97568.97;6110214;19;20610;-71
2024/03/04 06:15:22;;;;;;;19.80;10.13;;;;;;;-2.01;100.00;97577.44;6102527;19;20006;-71
2024/03/04 06:17:23;;;;;;;15.90;9.70;;;;;;;-1.98;100.00;97568.69;6102352;19;20360;-71
2024/03/04 06:19:23;;;;;;;16.88;9.35;;;;;;;-1.98;100.00;97577.59;6102325;19;20091;-71
2024/03/04 06:21:23;;;;;;;18.48;9.77;;;;;;;-1.95;100.00;97580.78;6099511;19;20011;-70
2024/03/04 06:23:24;;;;;;;18.15;10.20;;;;;;;-1.90;100.00;97586.88;6103054;19;20013;-70
2024/03/04 06:25:25;;;;;;;16.40;10.48;;;;;;;-1.81;100.00;97590.38;6103009;19;20943;-70
2024/03/04 06:27:25;;;;;;;16.58;9.48;;;;;;;-1.70;100.00;97580.00;6103027;19;20062;-71
2024/03/04 06:29:26;;;;;;;20.65;10.52;;;;;;;-1.64;100.00;97586.88;6101333;19;20027;-71
2024/03/04 06:31:26;;;;;;;16.33;9.85;;;;;;;-1.57;100.00;97589.06;6099789;19;20123;-71
2024/03/04 06:33:27;;;;;;;17.85;9.63;;;;;;;-1.57;100.00;97591.78;6102469;19;20260;-71
2024/03/04 06:35:27;;;;;;;16.83;8.88;;;;;;;-1.56;100.00;97590.69;6102212;19;20007;-71
2024/03/04 06:37:27;;;;;;;17.92;10.00;;;;;;;-1.55;100.00;97601.22;6100151;19;20006;-71
2024/03/04 06:39:28;;;;;;;20.30;11.63;;;;;;;-1.47;100.00;97600.41;6099667;19;20006;-71
2024/03/04 06:41:28;;;;;;;19.20;11.20;;;;;;;-1.37;100.00;97610.13;6099128;19;20848;-71
2024/03/04 06:43:28;;;;;;;18.83;10.27;;;;;;;-1.30;100.00;97607.72;6095658;19;20466;-71
2024/03/04 06:45:29;;;;;;;18.85;11.13;;;;;;;-1.18;100.00;97604.34;6100464;19;20463;-71
2024/03/04 06:47:29;;;;;;;24.00;10.75;;;;;;;-1.10;100.00;97610.88;6101626;19;20012;-71
2024/03/04 06:49:30;;;;;;;18.40;11.20;;;;;;;-1.08;100.00;97609.44;6100826;19;20002;-71
2024/03/04 06:51:35;;;;;;;23.85;11.98;;;;;;;-1.00;100.00;97615.97;6100223;19;20003;-71
2024/03/04 06:53:35;;;;;;;21.55;11.77;;;;;;;-0.94;100.00;97618.19;6101850;19;20002;-71
2024/03/04 06:55:35;;;;;;;20.75;10.63;;;;;;;-0.90;100.00;97621.06;6098135;19;20058;-71
2024/03/04 06:57:36;;;;;;;22.30;10.43;;;;;;;-0.84;100.00;97622.47;6100938;19;20038;-71
2024/03/04 06:59:36;;;;;;;24.30;11.93;;;;;;;-0.81;100.00;97623.75;6098819;19;20006;-71
2024/03/04 07:01:36;;;;;;;21.52;11.75;;;;;;;-0.75;100.00;97631.38;6096434;19;20003;-71
2024/03/04 07:03:38;;;;;;;26.20;12.52;;;;;;;-0.70;100.00;97631.22;6100240;19;20003;-71
2024/03/04 07:05:38;;;;;;;23.00;11.63;;;;;;;-0.64;100.00;97631.84;6098656;19;20671;-71
2024/03/04 07:07:38;;;;;;;24.58;12.10;;;;;;;-0.59;100.00;97637.88;6100006;19;20116;-71
2024/03/04 07:09:39;;;;;;;26.13;12.13;;;;;;;-0.53;100.00;97632.28;6100186;19;20804;-71
2024/03/04 07:11:39;;;;;;;23.70;12.73;;;;;;;-0.51;100.00;97636.25;6097688;19;20137;-71
2024/03/04 07:13:40;;;;;;;28.98;11.70;;;;;;;-0.48;100.00;97638.34;6098222;19;20007;-71
2024/03/04 07:15:41;;;;;;;28.50;11.77;;;;;;;-0.39;100.00;97641.03;6106635;19;19999;-71
2024/03/04 07:17:41;;;;;;;24.77;10.77;;;;;;;-0.33;100.00;97637.78;6105684;19;19998;-71
2024/03/04 07:19:41;;;;;;;25.02;11.48;;;;;;;-0.28;100.00;97644.94;6107438;19;20006;-71
2024/03/04 07:21:42;;;;;;;31.75;12.30;;;;;;;-0.23;100.00;97643.97;6105994;19;20062;-71
2024/03/04 07:23:43;;;;;;;29.67;12.20;;;;;;;-0.17;100.00;97648.88;6105219;19;20010;-71
2024/03/04 07:25:43;;;;;;;30.95;12.63;;;;;;;-0.13;100.00;97647.13;6108296;19;20029;-71
2024/03/04 07:27:44;;;;;;;22.48;11.88;;;;;;;-0.08;100.00;97646.94;6107765;19;20360;-71
2024/03/04 07:29:44;;;;;;;29.58;12.88;;;;;;;-0.07;100.00;97651.25;6107799;19;20466;-71
2024/03/04 07:31:46;;;;;;;28.88;12.55;;;;;;;-0.10;100.00;97649.16;6105672;19;20557;-71
2024/03/04 07:33:46;;;;;;;31.83;12.60;;;;;;;-0.08;100.00;97643.44;6107787;19;20070;-71
2024/03/04 07:35:46;;;;;;;28.35;13.18;;;;;;;-0.09;100.00;97644.53;6107365;19;20006;-71
2024/03/04 07:37:47;;;;;;;28.23;12.93;;;;;;;-0.03;100.00;97643.22;6107115;19;20022;-71
2024/03/04 07:39:48;;;;;;;28.88;13.93;;;;;;;0.05;100.00;97641.56;6107343;19;20511;-71
2024/03/04 07:41:48;;;;;;;27.33;12.23;;;;;;;0.14;100.00;97650.47;6105289;19;20021;-71
2024/03/04 07:43:49;;;;;;;27.33;13.32;;;;;;;0.25;100.00;97646.25;6107213;19;20006;-71
2024/03/04 07:45:49;;;;;;;28.45;13.07;;;;;;;0.33;100.00;97641.84;6106746;19;20020;-71
2024/03/04 07:47:50;;;;;;;27.98;14.10;;;;;;;0.42;100.00;97648.06;6106751;19;19998;-71
2024/03/04 07:49:51;;;;;;;32.15;15.13;;;;;;;0.51;100.00;97649.59;6107253;19;20009;-71
2024/03/04 07:51:51;;;;;;;31.85;15.40;;;;;;;0.57;100.00;97653.69;6105625;19;20002;-71
2024/03/04 07:53:51;;;;;;;35.72;16.00;;;;;;;0.64;100.00;97655.06;6107182;19;20022;-71
2024/03/04 07:55:52;;;;;;;35.40;17.05;;;;;;;0.78;100.00;97661.84;6106616;19;20009;-71
2024/03/04 07:57:52;;;;;;;43.13;16.65;;;;;;;0.86;100.00;97659.38;6107506;19;20026;-71
2024/03/04 07:59:53;;;;;;;31.63;15.07;;;;;;;0.93;100.00;97660.44;6106341;19;20048;-71
2024/03/04 08:01:53;;;;;;;32.05;15.45;;;;;;;1.00;100.00;97665.34;6106107;19;20090;-71
2024/03/04 08:03:54;;;;;;;41.78;18.95;;;;;;;1.08;100.00;97654.38;6107026;19;20035;-71
2024/03/04 08:05:55;;;;;;;44.67;18.88;;;;;;;1.19;100.00;97671.09;6106987;19;20459;-71
2024/03/04 08:07:56;;;;;;;42.95;19.00;;;;;;;1.31;100.00;97665.66;6105829;19;20471;-71
2024/03/04 08:09:56;;;;;;;42.20;18.30;;;;;;;1.45;100.00;97668.06;6107307;19;20040;-71
2024/03/04 08:11:56;;;;;;;38.25;17.92;;;;;;;1.56;100.00;97674.69;6104332;19;20007;-70
2024/03/04 08:13:57;;;;;;;38.40;18.50;;;;;;;1.67;100.00;97677.78;6106881;19;20036;-71
2024/03/04 08:15:57;;;;;;;31.38;15.60;;;;;;;1.77;100.00;97673.81;6107011;19;20481;-71
2024/03/04 08:17:59;;;;;;;33.17;15.75;;;;;;;1.87;100.00;97678.81;6105899;19;20003;-71
2024/03/04 08:19:59;;;;;;;37.00;15.80;;;;;;;1.91;100.00;97680.53;6106557;19;20014;-71
2024/03/04 08:21:59;;;;;;;42.40;16.63;;;;;;;1.99;100.00;97678.81;6105469;19;20003;-71
2024/03/04 08:24:00;;;;;;;35.13;15.20;;;;;;;2.07;100.00;97680.66;6106041;19;20026;-71
2024/03/04 08:26:00;;;;;;;31.83;15.10;;;;;;;2.17;100.00;97676.66;6106296;19;20019;-71
2024/03/04 08:28:00;;;;;;;40.60;18.10;;;;;;;2.22;100.00;97673.69;6105938;19;20010;-71
2024/03/04 08:30:01;;;;;;;35.00;15.55;;;;;;;2.28;100.00;97676.97;6106480;19;19998;-71
2024/03/04 08:32:01;;;;;;;39.80;18.65;;;;;;;2.35;100.00;97679.94;6104288;19;20122;-71
2024/03/04 08:34:04;;;;;;;35.22;16.65;;;;;;;2.43;100.00;97685.25;6111000;19;19998;-71
2024/03/04 08:36:05;;;;;;;;;;;;;;;2.47;100.00;97688.88;6112532;19;20030;-71
2024/03/04 08:38:05;;;;;;;32.08;16.60;;;;;;;2.53;100.00;97692.19;6112286;19;19913;-71
2024/03/04 08:40:06;;;;;;;36.92;16.40;;;;;;;2.54;100.00;97682.84;6111656;19;19999;-71
2024/03/04 08:42:07;;;;;;;36.13;16.40;;;;;;;2.53;100.00;97689.44;6109640;19;20435;-71
2024/03/04 08:44:07;;;;;;;31.38;14.93;;;;;;;2.56;100.00;97696.16;6112216;19;20006;-71
2024/03/04 08:46:10;;;;;;;32.22;16.10;;;;;;;2.60;100.00;97697.88;6110624;19;20025;-71
2024/03/04 08:48:10;;;;;;;31.67;15.30;;;;;;;2.63;100.00;97699.91;6110463;19;20007;-71
2024/03/04 08:50:11;;;;;;;31.70;16.35;;;;;;;2.73;100.00;97693.97;6111690;19;20070;-71
2024/03/04 08:52:11;;;;;;;31.98;16.15;;;;;;;2.83;100.00;97692.69;6109934;19;20013;-71
2024/03/04 08:54:11;;;;;;;29.83;14.82;;;;;;;2.86;100.00;97702.91;6110894;19;20022;-71
2024/03/04 08:56:12;;;;;;;30.73;15.48;;;;;;;2.91;100.00;97705.41;6111177;19;20479;-71
2024/03/04 08:58:12;;;;;;;33.13;15.38;;;;;;;3.00;100.00;97710.75;6111150;19;20353;-71
2024/03/04 09:00:13;;;;;;;39.20;16.73;;;;;;;3.12;100.00;97713.41;6111789;19;20017;-71
2024/03/04 09:02:14;;;;;;;33.38;15.55;;;;;;;3.24;100.00;97704.38;6109463;19;20003;-71
2024/03/04 09:04:14;;;;;;;34.00;16.38;;;;;;;3.33;100.00;97708.56;6111820;19;20021;-71
2024/03/04 09:06:15;;;;;;;38.72;16.60;;;;;;;3.43;100.00;97714.66;6111798;19;20013;-71
2024/03/04 09:08:16;;;;;;;30.58;15.77;;;;;;;3.51;100.00;97713.72;6112046;19;20003;-71
2024/03/04 09:10:17;;;;;;;35.00;17.00;;;;;;;3.60;100.00;97714.34;6110481;19;20006;-71